Airfield :
LOGIN :

Register | Disclaimer

   EN    FR    IT 

 










Legend :    VFR   Marginal VFR   IFR   Intensive IFR   Very Intensive IFR
Visi :
Ceiling :
>= 8 km
>= 3000ft
5 to 8 km
1000 to 3000 ft
1500m to 5 km
500 to 1000 ft
800 to 1500m
200 to 500 ft
< 800m
< 200 ft
Symbols :   Thunderstorms  Fog  Heavy snow  Heavy precipitations  Wind > 20 kt
SIGMETs :     Misc.  Thunderstorms  Icing  Turbulence  Mountain Waves  Volcanic Ashes







- Airport Elevation : 681 ft
- IATA code : LBA
- Download approach charts


EGNM - Leeds Bradford

CURRENT METAR :
  • 181150Z 28010KT 250V350 9999 VCSH SCT018 SCT030 08/05 Q1019

EXPIRED METARs :
  • 181120Z 29009KT 260V330 9999 SCT015 08/04 Q1019
  • 181050Z 28009KT 250V350 9999 FEW018 SCT035 07/05 Q1019
  • 181020Z 30012KT 9999 FEW019 SCT036 07/04 Q1019
  • 180950Z 30013KT 260V350 9999 FEW018 SCT023 07/05 Q1019
  • 180920Z 29010KT 270V330 9999 FEW018 SCT023 07/04 Q1019

TAF TAF EGNM
Valid from the 18 at 12:00 until the 19 at 12:00 UTC


181058Z 1812/1912 29010KT 9999 SCT030
PROB30
TEMPO 1812/1821 28015G25KT
ATIS : +44 113 250 9696 (x2489)
No reported NOTAMs for that airfield.



MET'MAP, your aeronautical weather chart ! - Copyright ORBIFLY December 2007 - Disclaimer

ORBIFLY MET'MAP TEAM :

Programming & Development : Alexandra Zaïnal
Concept & Development : Baudouin d'Aumeries
Co-Development & Prog : Marc-Olivier Méhu
Technical & hardware support : Manuel Goepfert

Contact : metmap@orbifly.com




SOURCES & CREDITS :

   NOAA